createdAt,value
2019-05-19T00:00:38.935Z,28.30
2019-05-19T00:01:19.160Z,28.30
2019-05-19T00:01:58.359Z,28.30
2019-05-19T00:02:40.679Z,28.30
2019-05-19T00:03:19.525Z,28.30
2019-05-19T00:03:58.233Z,28.30
2019-05-19T00:04:37.936Z,28.30
2019-05-19T00:05:17.214Z,28.30
2019-05-19T00:05:56.352Z,28.30
2019-05-19T00:06:35.918Z,28.30
2019-05-19T00:07:15.654Z,28.30
2019-05-19T00:07:54.274Z,28.30
2019-05-19T00:08:33.565Z,28.30
2019-05-19T00:09:16.030Z,28.30
2019-05-19T00:09:53.307Z,28.40
2019-05-19T00:10:32.852Z,28.30
2019-05-19T00:11:12.826Z,28.30
2019-05-19T00:11:51.871Z,28.30
2019-05-19T00:12:31.674Z,28.30
2019-05-19T00:13:11.140Z,28.30
2019-05-19T00:13:50.166Z,28.30
2019-05-19T00:14:29.632Z,28.30
2019-05-19T00:15:09.747Z,28.30
2019-05-19T00:15:48.948Z,28.30
2019-05-19T00:16:28.407Z,28.40
2019-05-19T00:17:08.278Z,28.30
2019-05-19T00:17:47.141Z,28.40
2019-05-19T00:18:27.143Z,28.40
2019-05-19T00:19:06.170Z,28.30
2019-05-19T00:19:45.074Z,28.30
2019-05-19T00:20:24.443Z,28.30
2019-05-19T00:21:04.079Z,28.30
2019-05-19T00:21:42.734Z,28.30
2019-05-19T00:22:22.272Z,28.30
2019-05-19T00:23:01.322Z,28.30
2019-05-19T00:23:40.919Z,28.30
2019-05-19T00:24:19.987Z,28.40
2019-05-19T00:24:59.586Z,28.30
2019-05-19T00:25:38.418Z,28.40
2019-05-19T00:26:18.032Z,28.40
2019-05-19T00:26:57.580Z,28.40
2019-05-19T00:27:36.640Z,28.40
2019-05-19T00:28:16.308Z,28.40
2019-05-19T00:28:56.047Z,28.40
2019-05-19T00:29:34.790Z,28.40
2019-05-19T00:30:14.647Z,28.40
2019-05-19T00:30:54.900Z,28.40
2019-05-19T00:31:34.133Z,28.40
2019-05-19T00:32:13.647Z,28.40
2019-05-19T00:32:53.424Z,28.40
2019-05-19T00:33:32.259Z,28.40
2019-05-19T00:34:12.211Z,28.40
2019-05-19T00:34:51.742Z,28.40
2019-05-19T00:35:30.859Z,28.40
2019-05-19T00:36:10.542Z,28.40
2019-05-19T00:36:50.171Z,28.40
2019-05-19T00:37:46.639Z,28.40
2019-05-19T00:38:25.996Z,28.40
2019-05-19T00:39:06.198Z,28.40
2019-05-19T00:39:45.200Z,28.40
2019-05-19T00:40:25.154Z,28.40
2019-05-19T00:41:05.295Z,28.40
2019-05-19T00:41:44.438Z,28.40
2019-05-19T00:42:24.266Z,28.40
2019-05-19T00:43:03.738Z,28.40
2019-05-19T00:43:42.526Z,28.40
2019-05-19T00:44:21.823Z,28.40
2019-05-19T00:45:01.435Z,28.40
2019-05-19T00:45:40.212Z,28.40
2019-05-19T00:46:19.708Z,28.40
2019-05-19T00:46:59.003Z,28.40
2019-05-19T00:47:38.225Z,28.40
2019-05-19T00:48:17.766Z,28.40
2019-05-19T00:48:57.518Z,28.40
2019-05-19T00:49:41.253Z,28.40
2019-05-19T00:50:17.401Z,28.50
2019-05-19T00:50:56.407Z,28.40
2019-05-19T00:51:35.681Z,28.40
2019-05-19T00:52:15.319Z,28.50
2019-05-19T00:52:54.882Z,28.50
2019-05-19T00:53:33.935Z,28.40
2019-05-19T00:54:13.371Z,28.40
2019-05-19T00:54:52.651Z,28.40
2019-05-19T00:55:31.539Z,28.50
2019-05-19T00:56:11.033Z,28.40
2019-05-19T00:56:50.730Z,28.50
2019-05-19T00:57:29.635Z,28.50
2019-05-19T00:58:09.644Z,28.50
2019-05-19T00:58:49.007Z,28.50
2019-05-19T00:59:27.762Z,28.50
2019-05-19T01:00:07.632Z,28.50
2019-05-19T01:00:47.255Z,28.50
2019-05-19T01:01:26.274Z,28.50
2019-05-19T01:02:05.701Z,28.50
2019-05-19T01:02:45.136Z,28.50
2019-05-19T01:03:23.893Z,28.50
2019-05-19T01:04:03.620Z,28.50
2019-05-19T01:04:43.377Z,28.50
2019-05-19T01:05:22.683Z,28.50
2019-05-19T01:06:02.143Z,28.50
2019-05-19T01:06:41.276Z,28.50
2019-05-19T01:07:20.166Z,28.50
2019-05-19T01:08:00.182Z,28.50
2019-05-19T01:08:39.603Z,28.50
2019-05-19T01:09:18.604Z,28.50
2019-05-19T01:09:58.343Z,28.50
2019-05-19T01:10:37.995Z,28.50
2019-05-19T01:11:16.887Z,28.50
2019-05-19T01:11:56.531Z,28.60
2019-05-19T01:12:36.760Z,28.60
2019-05-19T01:13:15.615Z,28.60
2019-05-19T01:13:54.990Z,28.60
2019-05-19T01:14:34.684Z,28.60
2019-05-19T01:15:13.565Z,28.60
2019-05-19T01:15:53.341Z,28.60
2019-05-19T01:16:32.994Z,28.60
2019-05-19T01:17:11.955Z,28.60
2019-05-19T01:17:51.147Z,28.60
2019-05-19T01:18:30.568Z,28.70
2019-05-19T01:19:09.772Z,28.70
2019-05-19T01:19:55.862Z,28.70
2019-05-19T01:20:30.879Z,28.70
2019-05-19T01:21:10.754Z,28.70
2019-05-19T01:21:50.342Z,28.70
2019-05-19T01:22:29.569Z,28.70
2019-05-19T01:23:08.899Z,28.70
2019-05-19T01:23:48.342Z,28.70
2019-05-19T01:24:28.060Z,28.70
2019-05-19T01:25:07.749Z,28.70
2019-05-19T01:25:47.291Z,28.80
2019-05-19T01:26:26.690Z,28.70
2019-05-19T01:27:05.740Z,28.70
2019-05-19T01:27:45.060Z,28.70
2019-05-19T01:28:25.083Z,28.70
2019-05-19T01:29:04.114Z,28.70
2019-05-19T01:29:43.786Z,28.70
2019-05-19T01:30:23.160Z,28.70
2019-05-19T01:31:02.465Z,28.70
2019-05-19T01:31:43.035Z,28.70
2019-05-19T01:32:22.455Z,28.70
2019-05-19T01:33:01.866Z,28.70
2019-05-19T01:33:41.476Z,28.70
2019-05-19T01:34:20.562Z,28.70
2019-05-19T01:34:59.389Z,28.70
2019-05-19T01:35:38.812Z,28.70
2019-05-19T01:36:18.438Z,28.70
2019-05-19T01:36:57.667Z,28.70
2019-05-19T01:37:37.943Z,28.70
2019-05-19T01:38:17.639Z,28.70
2019-05-19T01:38:56.446Z,28.70
2019-05-19T01:39:35.950Z,28.70
2019-05-19T01:40:15.369Z,28.70
2019-05-19T01:40:54.844Z,28.60
2019-05-19T01:41:34.439Z,28.70
2019-05-19T01:42:14.288Z,28.70
2019-05-19T01:42:52.866Z,28.60
2019-05-19T01:43:33.274Z,28.70
2019-05-19T01:44:12.943Z,28.70
2019-05-19T01:44:51.929Z,28.60
2019-05-19T01:45:31.435Z,28.70
2019-05-19T01:46:11.327Z,28.60
2019-05-19T01:46:49.891Z,28.70
2019-05-19T01:47:29.498Z,28.70
2019-05-19T01:48:09.155Z,28.60
2019-05-19T01:48:48.005Z,28.60
2019-05-19T01:49:27.622Z,28.70
2019-05-19T01:50:22.230Z,28.70
2019-05-19T01:50:47.270Z,28.70
2019-05-19T01:51:27.243Z,28.70
2019-05-19T01:52:06.637Z,28.70
2019-05-19T01:52:45.758Z,28.70
2019-05-19T01:53:25.259Z,28.70
2019-05-19T01:54:05.237Z,28.70
2019-05-19T01:54:44.193Z,28.70
2019-05-19T01:55:23.884Z,28.70
2019-05-19T01:56:03.339Z,28.70
2019-05-19T01:56:42.183Z,28.80
2019-05-19T01:57:21.711Z,28.70
2019-05-19T01:58:02.251Z,28.70
2019-05-19T01:58:41.163Z,28.70
2019-05-19T01:59:20.827Z,28.80
2019-05-19T02:00:00.356Z,28.70
2019-05-19T02:00:39.607Z,28.70
2019-05-19T02:01:19.246Z,28.70
2019-05-19T02:01:58.637Z,28.70
2019-05-19T02:02:37.381Z,28.80
2019-05-19T02:03:17.035Z,28.80
2019-05-19T02:03:56.798Z,28.80
2019-05-19T02:04:35.744Z,28.80
2019-05-19T02:05:15.234Z,28.80
2019-05-19T02:05:54.746Z,28.80
2019-05-19T02:06:33.510Z,28.90
2019-05-19T02:07:13.787Z,28.90
2019-05-19T02:07:52.990Z,28.90
2019-05-19T02:08:31.996Z,28.90
2019-05-19T02:09:12.124Z,28.90
2019-05-19T02:09:51.474Z,28.90
2019-05-19T02:10:30.880Z,28.90
2019-05-19T02:11:10.306Z,28.90
2019-05-19T02:11:49.939Z,28.90
2019-05-19T02:12:29.141Z,28.90
2019-05-19T02:13:08.907Z,29.00
2019-05-19T02:13:48.948Z,28.90
2019-05-19T02:14:28.035Z,29.00
2019-05-19T02:15:08.113Z,29.00
2019-05-19T02:15:47.608Z,29.00
2019-05-19T02:16:27.429Z,29.00
2019-05-19T02:17:07.108Z,29.00
2019-05-19T02:17:46.315Z,29.00
2019-05-19T02:18:25.907Z,29.00
2019-05-19T02:19:05.375Z,29.00
2019-05-19T02:19:45.023Z,29.00
2019-05-19T02:20:32.675Z,29.00
2019-05-19T02:21:06.244Z,29.00
2019-05-19T02:21:45.822Z,29.00
2019-05-19T02:22:24.486Z,29.00
2019-05-19T02:23:03.998Z,29.00
2019-05-19T02:23:43.615Z,29.00
2019-05-19T02:24:23.373Z,28.90
2019-05-19T02:25:03.228Z,28.90
2019-05-19T02:25:42.804Z,28.90
2019-05-19T02:26:21.803Z,28.90
2019-05-19T02:27:02.043Z,28.90
2019-05-19T02:27:41.275Z,28.90
2019-05-19T02:28:19.678Z,28.90
2019-05-19T02:28:59.304Z,28.90
2019-05-19T02:29:39.432Z,28.90
2019-05-19T02:30:19.238Z,28.90
2019-05-19T02:30:58.744Z,28.90
2019-05-19T02:31:38.377Z,28.90
2019-05-19T02:32:16.881Z,28.90
2019-05-19T02:32:55.971Z,28.90
2019-05-19T02:33:35.949Z,28.90
2019-05-19T02:34:15.582Z,28.90
2019-05-19T02:34:55.679Z,28.90
2019-05-19T02:35:35.470Z,28.90
2019-05-19T02:36:14.667Z,28.90
2019-05-19T02:36:54.354Z,28.90
2019-05-19T02:37:34.463Z,28.90
2019-05-19T02:38:13.321Z,28.90
2019-05-19T02:38:54.853Z,28.90
2019-05-19T02:39:34.192Z,28.90
2019-05-19T02:40:13.500Z,28.90
2019-05-19T02:40:55.513Z,28.90
2019-05-19T02:41:35.231Z,28.90
2019-05-19T02:42:13.980Z,28.90
2019-05-19T02:42:53.786Z,28.90
2019-05-19T02:43:33.035Z,28.90
2019-05-19T02:44:12.827Z,28.90
2019-05-19T02:44:52.828Z,28.90
2019-05-19T02:45:32.888Z,28.90
2019-05-19T02:46:11.862Z,28.90
2019-05-19T02:46:51.264Z,28.90
2019-05-19T02:47:30.583Z,28.90
2019-05-19T02:48:09.754Z,28.90
2019-05-19T02:48:49.105Z,28.90
2019-05-19T02:49:29.057Z,28.90
2019-05-19T02:50:08.211Z,28.80
2019-05-19T02:50:52.209Z,28.80
2019-05-19T02:51:28.305Z,28.80
2019-05-19T02:52:07.409Z,28.80
2019-05-19T02:52:47.670Z,28.80
2019-05-19T02:53:28.021Z,28.80
2019-05-19T02:54:08.140Z,28.80
2019-05-19T02:54:47.606Z,28.80
2019-05-19T02:55:27.715Z,28.80
2019-05-19T02:56:06.744Z,28.80
2019-05-19T02:56:46.252Z,28.80
2019-05-19T02:57:25.610Z,28.80
2019-05-19T02:58:04.315Z,28.90
2019-05-19T02:58:43.731Z,28.90
2019-05-19T02:59:23.859Z,28.80
2019-05-19T03:00:02.700Z,28.90
2019-05-19T03:00:43.919Z,28.80
2019-05-19T03:01:23.996Z,28.80
2019-05-19T03:02:08.051Z,28.80
2019-05-19T03:02:47.647Z,28.80
2019-05-19T03:03:27.312Z,28.90
2019-05-19T03:04:06.386Z,28.90
2019-05-19T03:04:46.040Z,28.80
2019-05-19T03:05:26.895Z,28.80
2019-05-19T03:06:06.015Z,28.80
2019-05-19T03:06:46.037Z,28.80
2019-05-19T03:07:25.804Z,28.80
2019-05-19T03:08:04.700Z,28.80
2019-05-19T03:08:44.245Z,28.80
2019-05-19T03:09:24.111Z,28.80
2019-05-19T03:10:03.018Z,28.80
2019-05-19T03:10:42.492Z,28.80
2019-05-19T03:11:22.022Z,28.80
2019-05-19T03:12:00.930Z,28.80
2019-05-19T03:12:40.782Z,28.80
2019-05-19T03:13:20.288Z,28.80
2019-05-19T03:14:00.214Z,28.80
2019-05-19T03:14:39.821Z,28.80
2019-05-19T03:15:19.236Z,28.80
2019-05-19T03:15:57.935Z,28.80
2019-05-19T03:16:37.463Z,28.80
2019-05-19T03:17:16.761Z,28.80
2019-05-19T03:17:55.825Z,28.80
2019-05-19T03:18:35.195Z,28.80
2019-05-19T03:19:14.595Z,28.80
2019-05-19T03:19:53.296Z,28.80
2019-05-19T03:20:32.943Z,28.80
2019-05-19T03:21:12.570Z,28.80
2019-05-19T03:21:53.563Z,28.80
2019-05-19T03:22:33.027Z,28.80
2019-05-19T03:23:12.758Z,28.80
2019-05-19T03:23:54.352Z,28.80
2019-05-19T03:24:34.100Z,28.80
2019-05-19T03:25:13.943Z,28.80
2019-05-19T03:25:53.599Z,28.80
2019-05-19T03:26:33.078Z,28.80
2019-05-19T03:27:13.658Z,28.80
2019-05-19T03:27:53.404Z,28.80
2019-05-19T03:28:32.831Z,28.80
2019-05-19T03:29:13.427Z,28.80
2019-05-19T03:29:57.200Z,28.80
2019-05-19T03:31:03.584Z,28.80
2019-05-19T03:31:54.910Z,28.80
2019-05-19T03:32:41.893Z,28.80
2019-05-19T03:33:24.643Z,28.90
2019-05-19T03:34:03.626Z,28.80
2019-05-19T03:34:42.838Z,28.80
2019-05-19T03:35:22.739Z,28.80
2019-05-19T03:36:02.551Z,28.80
2019-05-19T03:36:42.087Z,28.80
2019-05-19T03:37:22.296Z,28.80
2019-05-19T03:38:01.179Z,28.80
2019-05-19T03:38:40.480Z,28.90
2019-05-19T03:39:19.989Z,28.80
2019-05-19T03:39:59.180Z,28.80
2019-05-19T03:40:38.527Z,28.80
2019-05-19T03:41:18.652Z,28.80
2019-05-19T03:41:57.562Z,28.80
2019-05-19T03:42:36.899Z,28.80
2019-05-19T03:43:16.707Z,28.80
2019-05-19T03:43:55.688Z,28.80
2019-05-19T03:44:35.682Z,28.80
2019-05-19T03:45:15.383Z,28.80
2019-05-19T03:45:54.047Z,28.80
2019-05-19T03:46:33.323Z,28.80
2019-05-19T03:47:12.873Z,28.80
2019-05-19T03:47:51.969Z,28.80
2019-05-19T03:48:31.033Z,28.80
2019-05-19T03:49:11.755Z,28.80
2019-05-19T03:49:50.604Z,28.80
2019-05-19T03:50:30.303Z,28.80
2019-05-19T03:51:09.719Z,28.80
2019-05-19T03:51:48.888Z,28.80
2019-05-19T03:52:28.450Z,28.80
2019-05-19T03:53:08.085Z,28.90
2019-05-19T03:53:46.822Z,28.90
2019-05-19T03:54:26.324Z,28.90
2019-05-19T03:55:05.820Z,28.90
2019-05-19T03:55:44.910Z,28.90
2019-05-19T03:56:24.685Z,28.90
2019-05-19T03:57:03.821Z,28.90
2019-05-19T03:57:42.806Z,28.90
2019-05-19T03:58:22.183Z,28.80
2019-05-19T03:59:01.485Z,28.80
2019-05-19T03:59:40.372Z,28.90
2019-05-19T04:00:21.016Z,28.80
2019-05-19T04:01:00.397Z,28.80
2019-05-19T04:01:39.932Z,28.80
2019-05-19T04:02:19.818Z,28.80
2019-05-19T04:03:00.637Z,28.80
2019-05-19T04:03:41.693Z,28.80
2019-05-19T04:04:21.161Z,28.80
2019-05-19T04:05:00.695Z,28.80
2019-05-19T04:05:39.540Z,28.80
2019-05-19T04:06:18.938Z,28.80
2019-05-19T04:06:58.064Z,28.80
2019-05-19T04:07:37.002Z,28.80
2019-05-19T04:08:16.474Z,28.80
2019-05-19T04:08:56.047Z,28.80
2019-05-19T04:09:35.363Z,28.80
2019-05-19T04:10:14.941Z,28.80
2019-05-19T04:10:54.694Z,28.80
2019-05-19T04:11:33.756Z,28.80
2019-05-19T04:12:12.921Z,28.80
2019-05-19T04:12:52.555Z,28.80
2019-05-19T04:13:31.609Z,28.80
2019-05-19T04:14:11.059Z,28.80
2019-05-19T04:14:50.585Z,28.80
2019-05-19T04:15:29.720Z,28.80
2019-05-19T04:16:10.055Z,28.80
2019-05-19T04:16:52.661Z,28.80
2019-05-19T04:17:31.843Z,28.80
2019-05-19T04:18:11.641Z,28.80
2019-05-19T04:18:51.112Z,28.80
2019-05-19T04:19:29.983Z,28.80
2019-05-19T04:20:09.812Z,28.80
2019-05-19T04:20:50.154Z,28.80
2019-05-19T04:21:45.759Z,28.80
2019-05-19T04:22:10.033Z,28.80
2019-05-19T04:22:54.800Z,28.90
2019-05-19T04:23:33.811Z,28.90
2019-05-19T04:24:13.359Z,28.90
2019-05-19T04:24:52.892Z,28.90
2019-05-19T04:25:32.159Z,28.80
2019-05-19T04:26:29.773Z,28.80
2019-05-19T04:27:09.412Z,28.80
2019-05-19T04:27:48.570Z,28.90
2019-05-19T04:28:27.796Z,28.90
2019-05-19T04:29:07.507Z,28.90
2019-05-19T04:29:46.591Z,28.90
2019-05-19T04:30:26.259Z,28.90
2019-05-19T04:31:05.583Z,28.90
2019-05-19T04:31:45.244Z,28.90
2019-05-19T04:32:24.661Z,28.90
2019-05-19T04:33:04.004Z,28.90
2019-05-19T04:33:43.123Z,28.90
2019-05-19T04:34:22.645Z,28.90
2019-05-19T04:35:02.242Z,28.90
2019-05-19T04:35:41.293Z,28.80
2019-05-19T04:36:20.368Z,28.80
2019-05-19T04:36:59.780Z,28.80
2019-05-19T04:37:39.076Z,28.80
2019-05-19T04:38:18.285Z,28.80
2019-05-19T04:38:57.667Z,28.80
2019-05-19T04:39:36.812Z,28.80
2019-05-19T04:40:18.302Z,28.80
2019-05-19T04:40:58.175Z,28.80
2019-05-19T04:41:40.136Z,28.90
2019-05-19T04:42:18.584Z,28.90
2019-05-19T04:42:57.966Z,28.90
2019-05-19T04:43:37.063Z,28.90
2019-05-19T04:44:16.802Z,28.90
2019-05-19T04:44:56.189Z,28.90
2019-05-19T04:45:35.003Z,28.90
2019-05-19T04:46:14.368Z,28.90
2019-05-19T04:46:53.445Z,28.90
2019-05-19T04:47:32.916Z,28.90
2019-05-19T04:48:12.523Z,28.90
2019-05-19T04:48:52.171Z,28.90
2019-05-19T04:49:31.492Z,28.90
2019-05-19T04:50:10.893Z,28.90
2019-05-19T04:50:50.484Z,28.90
2019-05-19T04:51:29.752Z,28.90
2019-05-19T04:52:09.279Z,28.90
2019-05-19T04:52:48.924Z,28.90
2019-05-19T04:53:28.012Z,28.90
2019-05-19T04:54:07.586Z,29.00
2019-05-19T04:54:47.271Z,29.00
2019-05-19T04:55:26.458Z,29.00
2019-05-19T04:56:05.830Z,29.00
2019-05-19T04:56:45.693Z,29.00
2019-05-19T04:57:24.944Z,29.00
2019-05-19T04:58:05.041Z,29.00
2019-05-19T04:58:44.162Z,29.00
2019-05-19T04:59:22.995Z,29.00
2019-05-19T05:00:03.085Z,29.00
2019-05-19T05:00:42.760Z,29.00
2019-05-19T05:01:21.891Z,29.00
2019-05-19T05:02:01.503Z,29.00
2019-05-19T05:02:41.001Z,29.00
2019-05-19T05:03:19.979Z,29.00
2019-05-19T05:03:59.241Z,29.00
2019-05-19T05:04:38.790Z,29.00
2019-05-19T05:05:18.059Z,29.00
2019-05-19T05:05:57.911Z,29.00
2019-05-19T05:06:37.731Z,29.00
2019-05-19T05:07:16.839Z,29.00
2019-05-19T05:07:57.447Z,29.00
2019-05-19T05:08:37.389Z,29.00
2019-05-19T05:09:16.401Z,29.00
2019-05-19T05:09:55.513Z,29.10
2019-05-19T05:10:34.829Z,29.00
2019-05-19T05:11:13.589Z,29.00
2019-05-19T05:11:53.236Z,29.00
2019-05-19T05:12:32.684Z,29.00
2019-05-19T05:13:12.605Z,29.00
2019-05-19T05:13:52.074Z,29.10
2019-05-19T05:14:32.066Z,29.00
2019-05-19T05:15:10.974Z,29.10
2019-05-19T05:15:50.716Z,29.00
2019-05-19T05:16:30.035Z,29.00
2019-05-19T05:17:09.091Z,29.00
2019-05-19T05:17:48.767Z,29.00
2019-05-19T05:18:28.506Z,29.10
2019-05-19T05:19:07.382Z,29.00
2019-05-19T05:19:47.569Z,29.10
2019-05-19T05:20:27.014Z,29.10
2019-05-19T05:21:06.462Z,29.10
2019-05-19T05:21:45.929Z,29.10
2019-05-19T05:22:25.271Z,29.00
2019-05-19T05:23:04.306Z,29.10
2019-05-19T05:23:43.724Z,29.10
2019-05-19T05:24:23.039Z,29.10
2019-05-19T05:25:02.921Z,29.10
2019-05-19T05:25:42.256Z,29.10
2019-05-19T05:26:21.930Z,29.10
2019-05-19T05:27:00.775Z,29.10
2019-05-19T05:27:40.558Z,29.10
2019-05-19T05:28:19.850Z,29.10
2019-05-19T05:28:59.051Z,29.10
2019-05-19T05:29:40.386Z,29.10
2019-05-19T05:30:19.587Z,29.10
2019-05-19T05:30:58.441Z,29.10
2019-05-19T05:31:38.363Z,29.10
2019-05-19T05:32:17.992Z,29.10
2019-05-19T05:32:56.879Z,29.10
2019-05-19T05:33:36.630Z,29.10
2019-05-19T05:34:18.179Z,29.10
2019-05-19T05:35:08.431Z,29.10
2019-05-19T05:35:48.089Z,29.10
2019-05-19T05:36:27.930Z,29.10
2019-05-19T05:37:07.803Z,29.10
2019-05-19T05:37:47.976Z,29.10
2019-05-19T05:38:28.398Z,29.10
2019-05-19T05:39:08.236Z,29.10
2019-05-19T05:39:47.395Z,29.10
2019-05-19T05:40:27.655Z,29.10
2019-05-19T05:41:06.199Z,29.10
2019-05-19T05:41:46.287Z,29.10
2019-05-19T05:42:25.912Z,29.10
2019-05-19T05:43:05.480Z,29.10
2019-05-19T05:43:48.803Z,29.10
2019-05-19T05:44:28.612Z,29.10
2019-05-19T05:45:07.962Z,29.10
2019-05-19T05:45:47.435Z,29.10
2019-05-19T05:46:27.004Z,29.10
2019-05-19T05:47:05.674Z,29.10
2019-05-19T05:47:45.295Z,29.10
2019-05-19T05:48:25.736Z,29.10
2019-05-19T05:49:05.558Z,29.10
2019-05-19T05:49:45.147Z,29.10
2019-05-19T05:50:25.498Z,29.10
2019-05-19T05:51:05.286Z,29.10
2019-05-19T05:51:45.003Z,29.10
2019-05-19T05:52:37.619Z,29.10
2019-05-19T05:53:05.264Z,29.10
2019-05-19T05:53:45.085Z,29.10
2019-05-19T05:54:24.439Z,29.10
2019-05-19T05:55:03.252Z,29.10
2019-05-19T05:55:42.859Z,29.10
2019-05-19T05:56:21.822Z,29.10
2019-05-19T05:57:01.171Z,29.10
2019-05-19T05:57:40.981Z,29.10
2019-05-19T05:58:20.550Z,29.10
2019-05-19T05:58:59.605Z,29.10
2019-05-19T05:59:38.743Z,29.10
2019-05-19T06:00:18.068Z,29.10
2019-05-19T06:00:57.523Z,29.20
2019-05-19T06:01:37.407Z,29.20
2019-05-19T06:02:17.045Z,29.20
2019-05-19T06:02:55.923Z,29.20
2019-05-19T06:03:36.171Z,29.20
2019-05-19T06:04:16.112Z,29.20
2019-05-19T06:04:54.951Z,29.20
2019-05-19T06:05:34.588Z,29.20
2019-05-19T06:06:14.030Z,29.20
2019-05-19T06:06:52.984Z,29.20
2019-05-19T06:07:32.529Z,29.20
2019-05-19T06:08:12.175Z,29.20
2019-05-19T06:08:51.266Z,29.20
2019-05-19T06:09:30.835Z,29.20
2019-05-19T06:10:10.795Z,29.20
2019-05-19T06:10:50.383Z,29.20
2019-05-19T06:11:30.031Z,29.20
2019-05-19T06:12:09.602Z,29.20
2019-05-19T06:12:48.879Z,29.20
2019-05-19T06:13:28.191Z,29.20
2019-05-19T06:14:07.809Z,29.20
2019-05-19T06:14:46.956Z,29.20
2019-05-19T06:15:26.480Z,29.20
2019-05-19T06:16:05.999Z,29.20
2019-05-19T06:16:44.881Z,29.20
2019-05-19T06:17:24.349Z,29.20
2019-05-19T06:18:04.066Z,29.20
2019-05-19T06:18:43.191Z,29.20
2019-05-19T06:19:22.746Z,29.20
2019-05-19T06:20:02.979Z,29.20
2019-05-19T06:20:42.814Z,29.20
2019-05-19T06:21:22.628Z,29.20
2019-05-19T06:22:01.839Z,29.20
2019-05-19T06:22:59.196Z,29.20
2019-05-19T06:23:38.955Z,29.20
2019-05-19T06:24:18.642Z,29.20
2019-05-19T06:24:59.240Z,29.20
2019-05-19T06:25:39.077Z,29.20
2019-05-19T06:26:18.756Z,29.20
2019-05-19T06:26:57.848Z,29.20
2019-05-19T06:27:37.386Z,29.20
2019-05-19T06:28:16.515Z,29.20
2019-05-19T06:28:55.499Z,29.20
2019-05-19T06:29:34.962Z,29.30
2019-05-19T06:30:14.855Z,29.20
2019-05-19T06:30:53.817Z,29.20
2019-05-19T06:31:33.212Z,29.20
2019-05-19T06:32:36.400Z,29.20
2019-05-19T06:33:15.755Z,29.30
2019-05-19T06:33:55.277Z,29.30
2019-05-19T06:34:34.325Z,29.20
2019-05-19T06:35:14.946Z,29.30
2019-05-19T06:35:54.531Z,29.20
2019-05-19T06:36:33.386Z,29.20
2019-05-19T06:37:12.687Z,29.30
2019-05-19T06:37:55.190Z,29.30
2019-05-19T06:38:34.147Z,29.30
2019-05-19T06:39:13.423Z,29.30
2019-05-19T06:39:52.950Z,29.30
2019-05-19T06:40:31.917Z,29.30
2019-05-19T06:41:11.907Z,29.30
2019-05-19T06:41:51.830Z,29.30
2019-05-19T06:42:30.995Z,29.30
2019-05-19T06:43:11.163Z,29.20
2019-05-19T06:43:50.695Z,29.30
2019-05-19T06:44:31.728Z,29.20
2019-05-19T06:45:12.023Z,29.20
2019-05-19T06:45:51.468Z,29.20
2019-05-19T06:46:30.899Z,29.20
2019-05-19T06:47:11.209Z,29.20
2019-05-19T06:47:50.786Z,29.20
2019-05-19T06:48:29.499Z,29.20
2019-05-19T06:49:09.118Z,29.20
2019-05-19T06:49:49.204Z,29.20
2019-05-19T06:50:28.358Z,29.20
2019-05-19T06:51:07.579Z,29.10
2019-05-19T06:51:46.875Z,29.10
2019-05-19T06:52:25.975Z,29.10
2019-05-19T06:53:14.177Z,29.10
2019-05-19T06:53:46.476Z,29.10
2019-05-19T06:54:25.483Z,29.10
2019-05-19T06:55:05.040Z,29.10
2019-05-19T06:55:44.740Z,29.10
2019-05-19T06:56:24.037Z,29.10
2019-05-19T06:57:03.395Z,29.10
2019-05-19T06:57:43.269Z,29.10
2019-05-19T06:58:22.991Z,29.10
2019-05-19T06:59:02.685Z,29.10
2019-05-19T06:59:42.104Z,29.10
2019-05-19T07:00:20.706Z,29.10
2019-05-19T07:01:00.103Z,29.10
2019-05-19T07:01:39.677Z,29.10
2019-05-19T07:02:19.147Z,29.10
2019-05-19T07:02:58.922Z,29.10
2019-05-19T07:03:38.450Z,29.10
2019-05-19T07:04:16.816Z,29.10
2019-05-19T07:04:56.515Z,29.10
2019-05-19T07:05:36.017Z,29.10
2019-05-19T07:06:14.934Z,29.10
2019-05-19T07:06:54.728Z,29.10
2019-05-19T07:07:34.074Z,29.10
2019-05-19T07:08:13.062Z,29.10
2019-05-19T07:08:52.623Z,29.10
2019-05-19T07:09:32.576Z,29.10
2019-05-19T07:10:11.751Z,29.10
2019-05-19T07:10:51.090Z,29.10
2019-05-19T07:11:30.606Z,29.10
2019-05-19T07:12:09.601Z,29.10
2019-05-19T07:12:49.374Z,29.10
2019-05-19T07:13:29.599Z,29.00
2019-05-19T07:14:08.762Z,29.00
2019-05-19T07:14:48.231Z,29.00
2019-05-19T07:15:28.333Z,29.00
2019-05-19T07:16:07.173Z,29.00
2019-05-19T07:16:47.045Z,29.00
2019-05-19T07:17:26.751Z,29.00
2019-05-19T07:18:05.941Z,29.00
2019-05-19T07:18:45.555Z,29.00
2019-05-19T07:19:25.634Z,29.00
2019-05-19T07:20:04.411Z,29.00
2019-05-19T07:20:44.075Z,29.00
2019-05-19T07:21:23.212Z,29.00
2019-05-19T07:22:02.219Z,29.00
2019-05-19T07:22:41.347Z,29.00
2019-05-19T07:23:27.684Z,29.00
2019-05-19T07:24:01.098Z,29.00
2019-05-19T07:24:40.422Z,29.00
2019-05-19T07:25:20.276Z,29.00
2019-05-19T07:25:59.349Z,29.00
2019-05-19T07:26:38.762Z,29.00
2019-05-19T07:27:18.268Z,29.00
2019-05-19T07:27:57.410Z,29.00
2019-05-19T07:28:36.742Z,29.00
2019-05-19T07:29:16.315Z,29.00
2019-05-19T07:29:55.660Z,29.00
2019-05-19T07:30:35.169Z,29.00
2019-05-19T07:31:14.685Z,29.00
2019-05-19T07:31:53.578Z,29.00
2019-05-19T07:32:33.405Z,29.00
2019-05-19T07:33:13.039Z,29.00
2019-05-19T07:33:52.031Z,29.00
2019-05-19T07:34:31.318Z,29.00
2019-05-19T07:35:11.778Z,29.00
2019-05-19T07:35:50.672Z,29.00
2019-05-19T07:36:30.147Z,29.00
2019-05-19T07:37:09.775Z,29.00
2019-05-19T07:37:48.687Z,29.00
2019-05-19T07:38:28.103Z,29.00
2019-05-19T07:39:08.017Z,29.00
2019-05-19T07:39:46.935Z,29.00
2019-05-19T07:40:26.284Z,29.00
2019-05-19T07:41:05.856Z,29.00
2019-05-19T07:41:45.510Z,29.00
2019-05-19T07:42:25.047Z,29.00
2019-05-19T07:43:04.627Z,29.00
2019-05-19T07:43:43.466Z,29.00
2019-05-19T07:44:23.031Z,29.00
2019-05-19T07:45:02.290Z,29.00
2019-05-19T07:45:41.375Z,29.10
2019-05-19T07:46:20.976Z,29.10
2019-05-19T07:47:00.454Z,29.10
2019-05-19T07:47:39.710Z,29.10
2019-05-19T07:48:19.411Z,29.10
2019-05-19T07:48:59.034Z,29.10
2019-05-19T07:49:38.114Z,29.10
2019-05-19T07:50:17.505Z,29.10
2019-05-19T07:50:56.964Z,29.10
2019-05-19T07:51:36.184Z,29.10
2019-05-19T07:52:15.920Z,29.10
2019-05-19T07:52:55.669Z,29.20
2019-05-19T07:53:42.598Z,29.10
2019-05-19T07:54:16.363Z,29.10
2019-05-19T07:54:56.004Z,29.10
2019-05-19T07:55:35.079Z,29.10
2019-05-19T07:56:14.662Z,29.20
2019-05-19T07:56:54.303Z,29.20
2019-05-19T07:57:33.226Z,29.20
2019-05-19T07:58:12.912Z,29.20
2019-05-19T07:58:52.335Z,29.20
2019-05-19T07:59:32.110Z,29.20
2019-05-19T08:00:11.885Z,29.20
2019-05-19T08:00:51.643Z,29.20
2019-05-19T08:01:30.830Z,29.20
2019-05-19T08:02:10.163Z,29.20
2019-05-19T08:02:49.675Z,29.20
2019-05-19T08:03:28.994Z,29.20
2019-05-19T08:04:08.267Z,29.20
2019-05-19T08:04:48.029Z,29.20
2019-05-19T08:05:27.340Z,29.20
2019-05-19T08:06:07.987Z,29.20
2019-05-19T08:06:47.655Z,29.20
2019-05-19T08:07:25.774Z,29.20
2019-05-19T08:08:06.406Z,29.20
2019-05-19T08:08:46.163Z,29.20
2019-05-19T08:09:44.660Z,29.20
2019-05-19T08:10:23.909Z,29.20
2019-05-19T08:11:03.503Z,29.30
2019-05-19T08:11:43.214Z,29.20
2019-05-19T08:12:22.474Z,29.20
2019-05-19T08:13:02.259Z,29.20
2019-05-19T08:13:42.388Z,29.20
2019-05-19T08:14:21.489Z,29.20
2019-05-19T08:15:01.202Z,29.20
2019-05-19T08:15:40.998Z,29.20
2019-05-19T08:16:20.560Z,29.20
2019-05-19T08:16:59.831Z,29.20
2019-05-19T08:17:39.564Z,29.20
2019-05-19T08:18:18.491Z,29.30
2019-05-19T08:18:58.064Z,29.20
2019-05-19T08:19:37.515Z,29.20
2019-05-19T08:20:15.998Z,29.30
2019-05-19T08:20:55.550Z,29.30
2019-05-19T08:21:35.299Z,29.30
2019-05-19T08:22:14.586Z,29.30
2019-05-19T08:22:54.238Z,29.20
2019-05-19T08:23:33.534Z,29.30
2019-05-19T08:24:12.759Z,29.30
2019-05-19T08:24:52.006Z,29.30
2019-05-19T08:25:31.640Z,29.20
2019-05-19T08:26:10.463Z,29.20
2019-05-19T08:26:50.093Z,29.30
2019-05-19T08:27:29.689Z,29.30
2019-05-19T08:28:09.257Z,29.30
2019-05-19T08:28:48.893Z,29.30
2019-05-19T08:29:28.491Z,29.30
2019-05-19T08:30:07.670Z,29.30
2019-05-19T08:30:47.472Z,29.30
2019-05-19T08:31:27.586Z,29.30
2019-05-19T08:32:06.344Z,29.30